Main page
METAR-TAF:

METAR-TAF

Airports :

Bahrain, Bahrain

Bahrain International Airport

latitude: 26-16N, longitude: 050-39E, elevation: 2 m

Current weather observation

The report was made 28 minutes ago, at 20:00 UTC
Wind 9 kt from the North
Temperature 30°C
Humidity 40%
Pressure 1009 hPa
Visibility 10 km or more
no clouds below 1500 m and no cumulonimbus

METAR: OBBI 302000Z 36009KT CAVOK 30/15 Q1009 NOSIG

Time: 23:28 (20:28 UTC)

Forecast

The report was made 3 hours and 28 minutes ago, at 17:00 UTC
Forecast valid from 30 at 18 UTC to 02 at 00 UTC
Wind 7 kt from the North/Northwest
Visibility: 8000 m
Probability 30% :
Temporary
from 30 at 18 UTC to 01 at 09 UTC
Wind 20 kt from the North/Northwest with gusts up to 30 kt

TAF: OBBI 301700Z 3018/0200 33007KT 8000 NSC PROB30 TEMPO 3018/0109 33020G30KT

Weather observations and forecasts of more than 4000 airports (METAR and TAF reports).

The available stations are represented by yellow and red dots on the map.

Hover mouse over dot to see the name of the station.

Then click to see weather observations and forecasts.

To change the map : click on the green buttons with a black cross to zoom in, on the green button with a dash to zoom out, or on the green arrows for adjacent maps.


METAR-TAF: